sensor_id;sensor_type;location;lat;lon;timestamp;temperature;humidity
24454;DHT22;12627;50.860;5.714;2022-12-07T00:02:06;5.40;99.90
24454;DHT22;12627;50.860;5.714;2022-12-07T00:04:35;5.30;99.90
24454;DHT22;12627;50.860;5.714;2022-12-07T00:07:02;5.30;99.90
24454;DHT22;12627;50.860;5.714;2022-12-07T00:09:29;5.40;99.90
24454;DHT22;12627;50.860;5.714;2022-12-07T00:11:58;5.50;99.90
24454;DHT22;12627;50.860;5.714;2022-12-07T00:14:25;5.40;99.90
24454;DHT22;12627;50.860;5.714;2022-12-07T00:16:52;5.40;99.90
24454;DHT22;12627;50.860;5.714;2022-12-07T00:19:20;5.40;99.90
24454;DHT22;12627;50.860;5.714;2022-12-07T00:21:47;5.40;99.90
24454;DHT22;12627;50.860;5.714;2022-12-07T00:24:14;5.40;99.90
24454;DHT22;12627;50.860;5.714;2022-12-07T00:26:42;5.40;99.90
24454;DHT22;12627;50.860;5.714;2022-12-07T00:29:15;5.30;99.90
24454;DHT22;12627;50.860;5.714;2022-12-07T00:31:43;5.40;99.90
24454;DHT22;12627;50.860;5.714;2022-12-07T00:34:14;5.30;99.90
24454;DHT22;12627;50.860;5.714;2022-12-07T00:36:41;5.30;99.90
24454;DHT22;12627;50.860;5.714;2022-12-07T00:39:09;5.30;99.90
24454;DHT22;12627;50.860;5.714;2022-12-07T00:41:36;5.20;99.90
24454;DHT22;12627;50.860;5.714;2022-12-07T00:44:03;5.20;99.90
24454;DHT22;12627;50.860;5.714;2022-12-07T00:46:32;5.10;99.90
24454;DHT22;12627;50.860;5.714;2022-12-07T00:48:59;5.10;99.90
24454;DHT22;12627;50.860;5.714;2022-12-07T00:51:26;5.10;99.90
24454;DHT22;12627;50.860;5.714;2022-12-07T00:53:54;5.10;99.90
24454;DHT22;12627;50.860;5.714;2022-12-07T00:56:22;5.10;99.90
24454;DHT22;12627;50.860;5.714;2022-12-07T00:58:52;5.10;99.90
24454;DHT22;12627;50.860;5.714;2022-12-07T01:01:19;5.20;99.90
24454;DHT22;12627;50.860;5.714;2022-12-07T01:03:48;5.20;99.90
24454;DHT22;12627;50.860;5.714;2022-12-07T01:06:16;5.20;99.90
24454;DHT22;12627;50.860;5.714;2022-12-07T01:08:44;5.20;99.90
24454;DHT22;12627;50.860;5.714;2022-12-07T01:11:13;5.20;99.90
24454;DHT22;12627;50.860;5.714;2022-12-07T01:13:41;5.20;99.90
24454;DHT22;12627;50.860;5.714;2022-12-07T01:16:11;5.10;99.90
24454;DHT22;12627;50.860;5.714;2022-12-07T01:18:39;5.20;99.90
24454;DHT22;12627;50.860;5.714;2022-12-07T01:21:10;5.20;99.90
24454;DHT22;12627;50.860;5.714;2022-12-07T01:23:38;5.20;99.90
24454;DHT22;12627;50.860;5.714;2022-12-07T01:26:07;5.20;99.90
24454;DHT22;12627;50.860;5.714;2022-12-07T01:28:34;5.30;99.90
24454;DHT22;12627;50.860;5.714;2022-12-07T01:31:03;5.20;99.90
24454;DHT22;12627;50.860;5.714;2022-12-07T01:33:33;5.30;99.90
24454;DHT22;12627;50.860;5.714;2022-12-07T01:36:04;5.30;99.90
24454;DHT22;12627;50.860;5.714;2022-12-07T01:38:33;5.30;99.90
24454;DHT22;12627;50.860;5.714;2022-12-07T01:41:01;5.40;99.90
24454;DHT22;12627;50.860;5.714;2022-12-07T01:43:31;5.30;99.90
24454;DHT22;12627;50.860;5.714;2022-12-07T01:45:59;5.30;99.90
24454;DHT22;12627;50.860;5.714;2022-12-07T01:48:28;5.30;99.90
24454;DHT22;12627;50.860;5.714;2022-12-07T01:51:01;5.20;99.90
24454;DHT22;12627;50.860;5.714;2022-12-07T01:53:31;5.20;99.90
24454;DHT22;12627;50.860;5.714;2022-12-07T01:55:59;5.20;99.90
24454;DHT22;12627;50.860;5.714;2022-12-07T01:58:27;5.20;99.90
24454;DHT22;12627;50.860;5.714;2022-12-07T02:00:55;5.30;99.90
24454;DHT22;12627;50.860;5.714;2022-12-07T02:03:24;5.20;99.90
24454;DHT22;12627;50.860;5.714;2022-12-07T02:05:54;5.20;99.90
24454;DHT22;12627;50.860;5.714;2022-12-07T02:08:22;5.20;99.90
24454;DHT22;12627;50.860;5.714;2022-12-07T02:10:51;5.20;99.90
24454;DHT22;12627;50.860;5.714;2022-12-07T02:13:20;5.20;99.90
24454;DHT22;12627;50.860;5.714;2022-12-07T02:16:02;5.20;99.90
24454;DHT22;12627;50.860;5.714;2022-12-07T02:18:45;5.20;99.90
24454;DHT22;12627;50.860;5.714;2022-12-07T02:21:21;5.20;99.90
24454;DHT22;12627;50.860;5.714;2022-12-07T02:24:28;5.20;99.90
24454;DHT22;12627;50.860;5.714;2022-12-07T02:30:04;5.20;99.90
24454;DHT22;12627;50.860;5.714;2022-12-07T02:32:42;5.20;99.90
24454;DHT22;12627;50.860;5.714;2022-12-07T02:35:13;5.20;99.90
24454;DHT22;12627;50.860;5.714;2022-12-07T02:37:47;5.10;99.90
24454;DHT22;12627;50.860;5.714;2022-12-07T02:40:18;5.20;99.90
24454;DHT22;12627;50.860;5.714;2022-12-07T02:42:50;5.20;99.90
24454;DHT22;12627;50.860;5.714;2022-12-07T02:45:21;5.10;99.90
24454;DHT22;12627;50.860;5.714;2022-12-07T02:47:51;5.10;99.90
24454;DHT22;12627;50.860;5.714;2022-12-07T02:50:21;5.10;99.90
24454;DHT22;12627;50.860;5.714;2022-12-07T02:52:49;5.20;99.90
24454;DHT22;12627;50.860;5.714;2022-12-07T02:55:18;5.20;99.90
24454;DHT22;12627;50.860;5.714;2022-12-07T02:58:02;5.10;99.90
24454;DHT22;12627;50.860;5.714;2022-12-07T03:00:39;5.20;99.90
24454;DHT22;12627;50.860;5.714;2022-12-07T03:03:11;5.20;99.90
24454;DHT22;12627;50.860;5.714;2022-12-07T03:06:05;5.10;99.90
24454;DHT22;12627;50.860;5.714;2022-12-07T03:08:40;5.20;99.90
24454;DHT22;12627;50.860;5.714;2022-12-07T03:11:13;5.10;99.90
24454;DHT22;12627;50.860;5.714;2022-12-07T03:13:46;5.10;99.90
24454;DHT22;12627;50.860;5.714;2022-12-07T03:16:19;5.00;99.90
24454;DHT22;12627;50.860;5.714;2022-12-07T03:18:52;5.00;99.90
24454;DHT22;12627;50.860;5.714;2022-12-07T03:21:24;5.10;99.90
24454;DHT22;12627;50.860;5.714;2022-12-07T03:23:56;5.00;99.90
24454;DHT22;12627;50.860;5.714;2022-12-07T03:26:28;5.10;99.90
24454;DHT22;12627;50.860;5.714;2022-12-07T03:29:01;5.00;99.90
24454;DHT22;12627;50.860;5.714;2022-12-07T03:31:33;5.00;99.90
24454;DHT22;12627;50.860;5.714;2022-12-07T03:34:07;5.10;99.90
24454;DHT22;12627;50.860;5.714;2022-12-07T03:36:40;5.10;99.90
24454;DHT22;12627;50.860;5.714;2022-12-07T03:39:16;5.10;99.90
24454;DHT22;12627;50.860;5.714;2022-12-07T03:41:45;5.20;99.90
24454;DHT22;12627;50.860;5.714;2022-12-07T03:44:13;5.10;99.90
24454;DHT22;12627;50.860;5.714;2022-12-07T03:46:45;5.20;99.90
24454;DHT22;12627;50.860;5.714;2022-12-07T03:49:23;5.20;99.90
24454;DHT22;12627;50.860;5.714;2022-12-07T03:51:56;5.20;99.90
24454;DHT22;12627;50.860;5.714;2022-12-07T03:54:30;5.10;99.90
24454;DHT22;12627;50.860;5.714;2022-12-07T03:57:01;5.10;99.90
24454;DHT22;12627;50.860;5.714;2022-12-07T03:59:30;5.10;99.90
24454;DHT22;12627;50.860;5.714;2022-12-07T04:02:02;5.10;99.90
24454;DHT22;12627;50.860;5.714;2022-12-07T04:04:30;5.10;99.90
24454;DHT22;12627;50.860;5.714;2022-12-07T04:06:57;5.10;99.90
24454;DHT22;12627;50.860;5.714;2022-12-07T04:09:25;5.10;99.90
24454;DHT22;12627;50.860;5.714;2022-12-07T04:11:52;5.10;99.90
24454;DHT22;12627;50.860;5.714;2022-12-07T04:14:19;5.10;99.90
24454;DHT22;12627;50.860;5.714;2022-12-07T04:16:47;5.10;99.90
24454;DHT22;12627;50.860;5.714;2022-12-07T04:19:17;5.10;99.90
24454;DHT22;12627;50.860;5.714;2022-12-07T04:21:45;5.10;99.90
24454;DHT22;12627;50.860;5.714;2022-12-07T04:24:14;5.10;99.90
24454;DHT22;12627;50.860;5.714;2022-12-07T04:26:42;5.10;99.90
24454;DHT22;12627;50.860;5.714;2022-12-07T04:29:10;5.10;99.90
24454;DHT22;12627;50.860;5.714;2022-12-07T04:31:38;5.00;99.90
24454;DHT22;12627;50.860;5.714;2022-12-07T04:34:06;5.00;99.90
24454;DHT22;12627;50.860;5.714;2022-12-07T04:36:35;5.00;99.90
24454;DHT22;12627;50.860;5.714;2022-12-07T04:39:03;5.00;99.90
24454;DHT22;12627;50.860;5.714;2022-12-07T04:41:31;5.00;99.90
24454;DHT22;12627;50.860;5.714;2022-12-07T04:43:59;5.00;99.90
24454;DHT22;12627;50.860;5.714;2022-12-07T04:46:28;5.00;99.90
24454;DHT22;12627;50.860;5.714;2022-12-07T04:48:56;5.00;99.90
24454;DHT22;12627;50.860;5.714;2022-12-07T04:51:25;5.00;99.90
24454;DHT22;12627;50.860;5.714;2022-12-07T04:53:54;5.00;99.90
24454;DHT22;12627;50.860;5.714;2022-12-07T04:56:22;5.00;99.90
24454;DHT22;12627;50.860;5.714;2022-12-07T04:58:52;5.00;99.90
24454;DHT22;12627;50.860;5.714;2022-12-07T05:01:20;5.00;99.90
24454;DHT22;12627;50.860;5.714;2022-12-07T05:03:48;5.00;99.90
24454;DHT22;12627;50.860;5.714;2022-12-07T05:06:15;5.00;99.90
24454;DHT22;12627;50.860;5.714;2022-12-07T05:08:43;5.00;99.90
24454;DHT22;12627;50.860;5.714;2022-12-07T05:11:12;4.90;99.90
24454;DHT22;12627;50.860;5.714;2022-12-07T05:14:01;4.90;99.90
24454;DHT22;12627;50.860;5.714;2022-12-07T05:16:28;4.90;99.90
24454;DHT22;12627;50.860;5.714;2022-12-07T05:18:56;4.90;99.90
24454;DHT22;12627;50.860;5.714;2022-12-07T05:21:23;4.80;99.90
24454;DHT22;12627;50.860;5.714;2022-12-07T05:23:50;4.80;99.90
24454;DHT22;12627;50.860;5.714;2022-12-07T05:26:19;4.80;99.90
24454;DHT22;12627;50.860;5.714;2022-12-07T05:28:50;4.80;99.90
24454;DHT22;12627;50.860;5.714;2022-12-07T05:31:18;4.80;99.90
24454;DHT22;12627;50.860;5.714;2022-12-07T05:33:45;4.80;99.90
24454;DHT22;12627;50.860;5.714;2022-12-07T05:36:12;4.80;99.90
24454;DHT22;12627;50.860;5.714;2022-12-07T05:38:39;4.80;99.90
24454;DHT22;12627;50.860;5.714;2022-12-07T05:41:07;4.80;99.90
24454;DHT22;12627;50.860;5.714;2022-12-07T05:43:56;4.80;99.90
24454;DHT22;12627;50.860;5.714;2022-12-07T05:46:24;4.80;99.90
24454;DHT22;12627;50.860;5.714;2022-12-07T05:48:51;4.80;99.90
24454;DHT22;12627;50.860;5.714;2022-12-07T05:51:18;4.80;99.90
24454;DHT22;12627;50.860;5.714;2022-12-07T05:53:46;4.80;99.90
24454;DHT22;12627;50.860;5.714;2022-12-07T05:56:13;4.80;99.90
24454;DHT22;12627;50.860;5.714;2022-12-07T05:58:40;4.80;99.90
24454;DHT22;12627;50.860;5.714;2022-12-07T06:01:26;4.80;99.90
24454;DHT22;12627;50.860;5.714;2022-12-07T06:03:54;4.80;99.90
24454;DHT22;12627;50.860;5.714;2022-12-07T06:06:21;4.80;99.90
24454;DHT22;12627;50.860;5.714;2022-12-07T06:08:48;4.80;99.90
24454;DHT22;12627;50.860;5.714;2022-12-07T06:11:16;4.80;99.90
24454;DHT22;12627;50.860;5.714;2022-12-07T06:14:00;4.80;99.90
24454;DHT22;12627;50.860;5.714;2022-12-07T06:16:29;4.80;99.90
24454;DHT22;12627;50.860;5.714;2022-12-07T06:18:56;4.80;99.90
24454;DHT22;12627;50.860;5.714;2022-12-07T06:21:24;4.80;99.90
24454;DHT22;12627;50.860;5.714;2022-12-07T06:23:52;4.80;99.90
24454;DHT22;12627;50.860;5.714;2022-12-07T06:26:20;4.80;99.90
24454;DHT22;12627;50.860;5.714;2022-12-07T06:28:47;4.70;99.90
24454;DHT22;12627;50.860;5.714;2022-12-07T06:31:14;4.70;99.90
24454;DHT22;12627;50.860;5.714;2022-12-07T06:33:43;4.60;99.90
24454;DHT22;12627;50.860;5.714;2022-12-07T06:36:10;4.60;99.90
24454;DHT22;12627;50.860;5.714;2022-12-07T06:38:38;4.60;99.90
24454;DHT22;12627;50.860;5.714;2022-12-07T06:41:05;4.60;99.90
24454;DHT22;12627;50.860;5.714;2022-12-07T06:43:33;4.60;99.90
24454;DHT22;12627;50.860;5.714;2022-12-07T06:46:00;4.60;99.90
24454;DHT22;12627;50.860;5.714;2022-12-07T06:48:27;4.60;99.90
24454;DHT22;12627;50.860;5.714;2022-12-07T06:50:56;4.60;99.90
24454;DHT22;12627;50.860;5.714;2022-12-07T06:53:24;4.60;99.90
24454;DHT22;12627;50.860;5.714;2022-12-07T06:55:51;4.60;99.90
24454;DHT22;12627;50.860;5.714;2022-12-07T06:58:18;4.60;99.90
24454;DHT22;12627;50.860;5.714;2022-12-07T07:00:47;4.60;99.90
24454;DHT22;12627;50.860;5.714;2022-12-07T07:03:14;4.50;99.90
24454;DHT22;12627;50.860;5.714;2022-12-07T07:05:42;4.50;99.90
24454;DHT22;12627;50.860;5.714;2022-12-07T07:08:10;4.50;99.90
24454;DHT22;12627;50.860;5.714;2022-12-07T07:10:38;4.60;99.90
24454;DHT22;12627;50.860;5.714;2022-12-07T07:13:06;4.50;99.90
24454;DHT22;12627;50.860;5.714;2022-12-07T07:15:34;4.50;99.90
24454;DHT22;12627;50.860;5.714;2022-12-07T07:18:04;4.50;99.90
24454;DHT22;12627;50.860;5.714;2022-12-07T07:20:31;4.60;99.90
24454;DHT22;12627;50.860;5.714;2022-12-07T07:22:58;4.50;99.90
24454;DHT22;12627;50.860;5.714;2022-12-07T07:25:27;4.60;99.90
24454;DHT22;12627;50.860;5.714;2022-12-07T07:27:54;4.60;99.90
24454;DHT22;12627;50.860;5.714;2022-12-07T07:30:22;4.60;99.90
24454;DHT22;12627;50.860;5.714;2022-12-07T07:32:49;4.60;99.90
24454;DHT22;12627;50.860;5.714;2022-12-07T07:35:16;4.60;99.90
24454;DHT22;12627;50.860;5.714;2022-12-07T07:37:44;4.60;99.90
24454;DHT22;12627;50.860;5.714;2022-12-07T07:40:11;4.60;99.90
24454;DHT22;12627;50.860;5.714;2022-12-07T07:42:40;4.60;99.90
24454;DHT22;12627;50.860;5.714;2022-12-07T07:45:08;4.60;99.90
24454;DHT22;12627;50.860;5.714;2022-12-07T07:47:35;4.60;99.90
24454;DHT22;12627;50.860;5.714;2022-12-07T07:50:03;4.60;99.90
24454;DHT22;12627;50.860;5.714;2022-12-07T07:52:31;4.60;99.90
24454;DHT22;12627;50.860;5.714;2022-12-07T07:54:58;4.60;99.90
24454;DHT22;12627;50.860;5.714;2022-12-07T07:57:26;4.60;99.90
24454;DHT22;12627;50.860;5.714;2022-12-07T07:59:55;4.70;99.90
24454;DHT22;12627;50.860;5.714;2022-12-07T08:02:22;4.70;99.90
24454;DHT22;12627;50.860;5.714;2022-12-07T08:04:50;4.70;99.90
24454;DHT22;12627;50.860;5.714;2022-12-07T08:07:17;4.70;99.90
24454;DHT22;12627;50.860;5.714;2022-12-07T08:09:44;4.70;99.90
24454;DHT22;12627;50.860;5.714;2022-12-07T08:12:11;4.70;99.90
24454;DHT22;12627;50.860;5.714;2022-12-07T08:14:39;4.60;99.90
24454;DHT22;12627;50.860;5.714;2022-12-07T08:17:08;4.70;99.90
24454;DHT22;12627;50.860;5.714;2022-12-07T08:19:35;4.70;99.90
24454;DHT22;12627;50.860;5.714;2022-12-07T08:22:03;4.70;99.90
24454;DHT22;12627;50.860;5.714;2022-12-07T08:24:32;4.70;99.90
24454;DHT22;12627;50.860;5.714;2022-12-07T08:27:00;4.70;99.90
24454;DHT22;12627;50.860;5.714;2022-12-07T08:29:27;4.70;99.90
24454;DHT22;12627;50.860;5.714;2022-12-07T08:31:54;4.70;99.90
24454;DHT22;12627;50.860;5.714;2022-12-07T08:34:23;4.80;99.90
24454;DHT22;12627;50.860;5.714;2022-12-07T08:36:50;4.90;99.90
24454;DHT22;12627;50.860;5.714;2022-12-07T08:39:17;4.90;99.90
24454;DHT22;12627;50.860;5.714;2022-12-07T08:41:45;5.00;99.90
24454;DHT22;12627;50.860;5.714;2022-12-07T08:44:12;5.00;99.90
24454;DHT22;12627;50.860;5.714;2022-12-07T08:46:43;4.80;99.90
24454;DHT22;12627;50.860;5.714;2022-12-07T08:49:13;4.80;99.90
24454;DHT22;12627;50.860;5.714;2022-12-07T08:51:42;4.70;99.90
24454;DHT22;12627;50.860;5.714;2022-12-07T08:54:12;4.80;99.90
24454;DHT22;12627;50.860;5.714;2022-12-07T08:56:41;4.80;99.90
24454;DHT22;12627;50.860;5.714;2022-12-07T08:59:08;4.90;99.90
24454;DHT22;12627;50.860;5.714;2022-12-07T09:01:36;4.80;99.90
24454;DHT22;12627;50.860;5.714;2022-12-07T09:04:03;4.90;99.90
24454;DHT22;12627;50.860;5.714;2022-12-07T09:06:30;5.00;99.90
24454;DHT22;12627;50.860;5.714;2022-12-07T09:09:01;5.00;99.90
24454;DHT22;12627;50.860;5.714;2022-12-07T09:11:28;5.00;99.90
24454;DHT22;12627;50.860;5.714;2022-12-07T09:13:56;4.90;99.90
24454;DHT22;12627;50.860;5.714;2022-12-07T09:16:23;5.00;99.90
24454;DHT22;12627;50.860;5.714;2022-12-07T09:18:50;4.90;99.90
24454;DHT22;12627;50.860;5.714;2022-12-07T09:21:17;5.00;99.90
24454;DHT22;12627;50.860;5.714;2022-12-07T09:23:45;5.10;99.90
24454;DHT22;12627;50.860;5.714;2022-12-07T09:26:14;5.10;99.90
24454;DHT22;12627;50.860;5.714;2022-12-07T09:28:41;5.10;99.90
24454;DHT22;12627;50.860;5.714;2022-12-07T09:31:08;5.00;99.90
24454;DHT22;12627;50.860;5.714;2022-12-07T09:33:36;5.00;99.90
24454;DHT22;12627;50.860;5.714;2022-12-07T09:36:04;5.10;99.90
24454;DHT22;12627;50.860;5.714;2022-12-07T09:38:31;5.20;99.90
24454;DHT22;12627;50.860;5.714;2022-12-07T09:41:04;5.30;99.90
24454;DHT22;12627;50.860;5.714;2022-12-07T09:43:35;5.20;99.90
24454;DHT22;12627;50.860;5.714;2022-12-07T09:46:03;5.10;99.90
24454;DHT22;12627;50.860;5.714;2022-12-07T09:48:34;5.20;99.90
24454;DHT22;12627;50.860;5.714;2022-12-07T09:51:03;5.30;99.90
24454;DHT22;12627;50.860;5.714;2022-12-07T09:53:38;5.30;99.90
24454;DHT22;12627;50.860;5.714;2022-12-07T09:56:06;5.40;99.90
24454;DHT22;12627;50.860;5.714;2022-12-07T09:58:35;5.50;99.90
24454;DHT22;12627;50.860;5.714;2022-12-07T10:01:11;5.80;99.90
24454;DHT22;12627;50.860;5.714;2022-12-07T10:03:42;5.80;99.90
24454;DHT22;12627;50.860;5.714;2022-12-07T10:06:12;5.70;99.90
24454;DHT22;12627;50.860;5.714;2022-12-07T10:08:43;5.60;99.90
24454;DHT22;12627;50.860;5.714;2022-12-07T10:11:11;5.50;99.90
24454;DHT22;12627;50.860;5.714;2022-12-07T10:13:43;5.30;99.90
24454;DHT22;12627;50.860;5.714;2022-12-07T10:16:32;5.40;99.90
24454;DHT22;12627;50.860;5.714;2022-12-07T10:19:19;5.50;99.90
24454;DHT22;12627;50.860;5.714;2022-12-07T10:22:01;5.80;99.90
24454;DHT22;12627;50.860;5.714;2022-12-07T10:24:29;6.10;99.90
24454;DHT22;12627;50.860;5.714;2022-12-07T10:26:56;5.90;99.90
24454;DHT22;12627;50.860;5.714;2022-12-07T10:29:30;5.90;99.90
24454;DHT22;12627;50.860;5.714;2022-12-07T10:31:59;5.80;99.90
24454;DHT22;12627;50.860;5.714;2022-12-07T10:34:28;5.70;99.90
24454;DHT22;12627;50.860;5.714;2022-12-07T10:37:14;5.80;99.90
24454;DHT22;12627;50.860;5.714;2022-12-07T10:39:44;5.90;99.90
24454;DHT22;12627;50.860;5.714;2022-12-07T10:42:19;5.90;99.90
24454;DHT22;12627;50.860;5.714;2022-12-07T10:44:49;6.00;99.90
24454;DHT22;12627;50.860;5.714;2022-12-07T10:47:25;6.20;99.90
24454;DHT22;12627;50.860;5.714;2022-12-07T10:50:23;6.30;99.90
24454;DHT22;12627;50.860;5.714;2022-12-07T10:53:16;6.30;99.90
24454;DHT22;12627;50.860;5.714;2022-12-07T10:56:02;6.30;99.90
24454;DHT22;12627;50.860;5.714;2022-12-07T10:58:41;6.30;99.90
24454;DHT22;12627;50.860;5.714;2022-12-07T11:01:18;6.20;99.90
24454;DHT22;12627;50.860;5.714;2022-12-07T11:04:02;6.10;99.90
24454;DHT22;12627;50.860;5.714;2022-12-07T11:06:34;6.10;99.90
24454;DHT22;12627;50.860;5.714;2022-12-07T11:09:23;6.30;99.90
24454;DHT22;12627;50.860;5.714;2022-12-07T11:11:57;6.30;99.90
24454;DHT22;12627;50.860;5.714;2022-12-07T11:14:34;6.60;99.90
24454;DHT22;12627;50.860;5.714;2022-12-07T11:17:09;6.40;99.90
24454;DHT22;12627;50.860;5.714;2022-12-07T11:20:00;6.10;99.90
24454;DHT22;12627;50.860;5.714;2022-12-07T11:22:36;6.10;99.90
24454;DHT22;12627;50.860;5.714;2022-12-07T11:25:19;6.10;99.90
24454;DHT22;12627;50.860;5.714;2022-12-07T11:28:01;6.50;99.90
24454;DHT22;12627;50.860;5.714;2022-12-07T11:30:34;6.60;99.90
24454;DHT22;12627;50.860;5.714;2022-12-07T11:33:15;6.40;99.90
24454;DHT22;12627;50.860;5.714;2022-12-07T11:36:00;6.30;99.90
24454;DHT22;12627;50.860;5.714;2022-12-07T11:38:41;6.20;99.90
24454;DHT22;12627;50.860;5.714;2022-12-07T11:41:10;6.20;99.90
24454;DHT22;12627;50.860;5.714;2022-12-07T11:43:53;6.10;99.90
24454;DHT22;12627;50.860;5.714;2022-12-07T11:46:25;6.20;99.90
24454;DHT22;12627;50.860;5.714;2022-12-07T11:48:58;6.50;99.90
24454;DHT22;12627;50.860;5.714;2022-12-07T11:51:27;6.70;99.90
24454;DHT22;12627;50.860;5.714;2022-12-07T11:53:58;6.80;99.90
24454;DHT22;12627;50.860;5.714;2022-12-07T11:56:28;6.90;99.90
24454;DHT22;12627;50.860;5.714;2022-12-07T11:59:00;6.90;99.90
24454;DHT22;12627;50.860;5.714;2022-12-07T12:01:40;6.70;99.90
24454;DHT22;12627;50.860;5.714;2022-12-07T12:04:25;6.60;99.90
24454;DHT22;12627;50.860;5.714;2022-12-07T12:06:54;6.50;99.90
24454;DHT22;12627;50.860;5.714;2022-12-07T12:09:32;6.60;99.90
24454;DHT22;12627;50.860;5.714;2022-12-07T12:12:14;6.70;99.90
24454;DHT22;12627;50.860;5.714;2022-12-07T12:14:53;6.70;99.90
24454;DHT22;12627;50.860;5.714;2022-12-07T12:20:37;6.90;99.90
24454;DHT22;12627;50.860;5.714;2022-12-07T12:23:11;7.00;99.90
24454;DHT22;12627;50.860;5.714;2022-12-07T12:25:42;6.90;99.90
24454;DHT22;12627;50.860;5.714;2022-12-07T12:28:23;6.70;99.90
24454;DHT22;12627;50.860;5.714;2022-12-07T12:31:11;6.70;99.90
24454;DHT22;12627;50.860;5.714;2022-12-07T12:33:44;6.80;99.90
24454;DHT22;12627;50.860;5.714;2022-12-07T12:36:25;6.90;99.90
24454;DHT22;12627;50.860;5.714;2022-12-07T12:39:09;6.90;99.90
24454;DHT22;12627;50.860;5.714;2022-12-07T12:41:53;7.00;99.90
24454;DHT22;12627;50.860;5.714;2022-12-07T12:45:03;7.00;99.90
24454;DHT22;12627;50.860;5.714;2022-12-07T12:47:56;7.10;99.90
24454;DHT22;12627;50.860;5.714;2022-12-07T12:50:29;7.00;99.90
24454;DHT22;12627;50.860;5.714;2022-12-07T12:53:16;7.00;99.90
24454;DHT22;12627;50.860;5.714;2022-12-07T12:56:11;7.10;99.90
24454;DHT22;12627;50.860;5.714;2022-12-07T12:58:43;7.10;99.90
24454;DHT22;12627;50.860;5.714;2022-12-07T13:01:45;7.10;99.90
24454;DHT22;12627;50.860;5.714;2022-12-07T13:07:51;7.00;99.90
24454;DHT22;12627;50.860;5.714;2022-12-07T13:10:45;7.00;99.90
24454;DHT22;12627;50.860;5.714;2022-12-07T13:13:35;7.10;99.90
24454;DHT22;12627;50.860;5.714;2022-12-07T13:19:54;7.20;99.90
24454;DHT22;12627;50.860;5.714;2022-12-07T13:22:43;7.00;99.90
24454;DHT22;12627;50.860;5.714;2022-12-07T13:25:12;7.10;99.90
24454;DHT22;12627;50.860;5.714;2022-12-07T13:27:51;7.10;99.90
24454;DHT22;12627;50.860;5.714;2022-12-07T13:30:22;7.10;99.90
24454;DHT22;12627;50.860;5.714;2022-12-07T13:32:54;7.10;99.90
24454;DHT22;12627;50.860;5.714;2022-12-07T13:35:33;7.10;99.90
24454;DHT22;12627;50.860;5.714;2022-12-07T13:38:04;7.00;99.90
24454;DHT22;12627;50.860;5.714;2022-12-07T13:40:32;7.00;99.90
24454;DHT22;12627;50.860;5.714;2022-12-07T13:43:03;7.00;99.90
24454;DHT22;12627;50.860;5.714;2022-12-07T13:45:32;7.00;99.90
24454;DHT22;12627;50.860;5.714;2022-12-07T13:48:20;7.00;99.90
24454;DHT22;12627;50.860;5.714;2022-12-07T13:50:53;7.00;99.90
24454;DHT22;12627;50.860;5.714;2022-12-07T13:53:22;7.00;99.90
24454;DHT22;12627;50.860;5.714;2022-12-07T13:55:57;7.00;99.90
24454;DHT22;12627;50.860;5.714;2022-12-07T13:58:29;6.90;99.90
24454;DHT22;12627;50.860;5.714;2022-12-07T14:00:58;6.90;99.90
24454;DHT22;12627;50.860;5.714;2022-12-07T14:03:30;6.90;99.90
24454;DHT22;12627;50.860;5.714;2022-12-07T14:06:21;6.90;99.90
24454;DHT22;12627;50.860;5.714;2022-12-07T14:08:51;6.90;99.90
24454;DHT22;12627;50.860;5.714;2022-12-07T14:11:36;6.90;99.90
24454;DHT22;12627;50.860;5.714;2022-12-07T14:14:10;6.90;99.90
24454;DHT22;12627;50.860;5.714;2022-12-07T14:16:40;6.90;99.90
24454;DHT22;12627;50.860;5.714;2022-12-07T14:19:43;6.90;99.90
24454;DHT22;12627;50.860;5.714;2022-12-07T14:22:30;7.00;99.90
24454;DHT22;12627;50.860;5.714;2022-12-07T14:25:19;7.00;99.90
24454;DHT22;12627;50.860;5.714;2022-12-07T14:27:54;7.00;99.90
24454;DHT22;12627;50.860;5.714;2022-12-07T14:30:27;7.10;99.90
24454;DHT22;12627;50.860;5.714;2022-12-07T14:32:57;7.10;99.90
24454;DHT22;12627;50.860;5.714;2022-12-07T14:35:26;7.00;99.90
24454;DHT22;12627;50.860;5.714;2022-12-07T14:37:54;7.00;99.90
24454;DHT22;12627;50.860;5.714;2022-12-07T14:40:23;6.90;99.90
24454;DHT22;12627;50.860;5.714;2022-12-07T14:42:52;6.70;99.90
24454;DHT22;12627;50.860;5.714;2022-12-07T14:45:22;6.70;99.90
